Bence Gulacsi

Recruteur en chef - Puskas Akademia
21 Oct 2027
Jeudi
Processus

Personnalité

Adaptabilité (8) Ambition (3) Controverse (9) Loyauté (8) Pression (16) Professionnalisme (15) Sportivité (11) Tempérament (4)

Profil

Style d'entraînement Démocratique
Diplôme Continental B
Détermination 4
Gestion des joueurs 6
Motivation 12
Discipline 12
Satisfaction professionnelle
100%
Fatigue
0%
Rôle Recruteur en chef
Salaire 45.8K p/s
Contrat 14.03.2030

Performance

Comportement Bon
Efficacité de l'entraînement
35%
Développement des joueurs
55%
Prévention des blessures
20%
Mise en place tactique
35%

Événements récents

A recommandé une cible de transfert maintenant
A recommandé une cible de transfert maintenant
A recommandé une cible de transfert maintenant
A recommandé une cible de transfert maintenant
A recommandé une cible de transfert maintenant
A participé à une réunion de recrutement maintenant
A participé à une réunion de recrutement maintenant
A participé à une réunion de recrutement maintenant

Suivi en cours

134
Joueur Club Statut Capacité Confiance Observé Dernière observation Dernier vote
Tiago Gordillo San Miguel Actif 86 / 103 40% 1 20.10.2027 -
José Movillo O'Higgins Actif 72 / 87 40% 1 20.10.2027 -
Nahuta Sadam Wikki Tourists Actif 64 / 81 40% 1 19.10.2027 -
Óscar Hinojosa Metropolitanos Actif 67 / 96 40% 1 19.10.2027 -
Gift Udoh Ikorodu City Actif 99 / 101 40% 2 18.10.2027 -
Rasmus Nehrman Gefle Actif 83 / 80 40% 1 18.10.2027 -
Lucas Camejo River Plate Actif 101 / 84 40% 1 17.10.2027 -
Julián Bazán Philadelphia Union Actif 97 / 117 40% 1 16.10.2027 -
Joel Ezra Enyimba Actif 93 / 98 40% 1 16.10.2027 -
Olaniyi Saheed Kwara United Actif 84 / 108 40% 1 12.10.2027 -
Godwin Oham Warri Wolves Actif 97 / 100 40% 1 12.10.2027 -
Agustín Obregón River Plate Actif 125 / 116 40% 1 08.10.2027 -
Jofrank Istifanus Nasarawa United Actif 85 / 92 40% 1 08.10.2027 -
David Asayure Lokomotivi Actif 68 / 83 40% 1 05.10.2027 -
David Damboama El-Kanemi Warriors Actif 92 / 81 40% 1 05.10.2027 -
Gleofilo Ujpest Actif 109 / 107 62% 1 28.06.2027 Approuver
Goga Kobiashvili Veres Négociation 92 / 92 66% 1 01.06.2027 Approuver
Bradley Phiri LNZ Négociation 112 / 112 66% 1 01.06.2027 Approuver
Shota Shekiladze Akhmat Grozny Négociation 110 / 110 66% 1 01.06.2027 Approuver
Khama Dolly Utrecht Négociation 123 / 124 67% 1 01.06.2027 Approuver
Moussa Dembélé CR Belouizdad Actif 123 / 136 40% 3 30.05.2027 -
Ross Stewart Southampton Actif 122 / 130 40% 2 28.05.2027 -
Dom Ballard Leyton Orient Actif 125 / 121 40% 1 28.05.2027 Plus d'infos
Tyreece Campbell Charlton Athletic Actif 123 / 121 40% 1 28.05.2027 -
Silvio Merkaj Vicenza Actif 127 / 116 40% 2 25.05.2027 -
Kelly Saravanan Salford City Actif 112 / 111 40% 1 25.05.2027 -
Elijah Adebayo Luton Town Actif 133 / 127 40% 2 24.05.2027 -
Lewis Morgan SuperSport United Actif 128 / 116 40% 6 23.05.2027 -
Yousef Salech Cardiff City Actif 123 / 128 40% 1 23.05.2027 -
Camillo Tavernelli Arezzo Actif 118 / 118 40% 2 22.05.2027 -
Harry Leonard Peterborough United Actif 112 / 117 40% 1 22.05.2027 -
Santiago Pierotti Lecce Actif 134 / 130 40% 3 21.05.2027 -
Tom Cannon Sheffield United Actif 131 / 127 40% 1 21.05.2027 -
Luis Vázquez Birmingham Actif 135 / 126 40% 2 19.05.2027 -
Aidomo Emakhu Oxford United Actif 126 / 123 40% 1 19.05.2027 -
Dany Mota Monza Actif 134 / 127 40% 2 18.05.2027 -
Patson Daka Leicester City Actif 123 / 121 40% 1 18.05.2027 -
Adam Idah Swansea City Actif 121 / 123 40% 1 16.05.2027 -
Bojan Radulović Huddersfield Town Actif 112 / 112 40% 1 13.05.2027 -
Cameron Archer Southampton Actif 136 / 127 40% 1 10.05.2027 Plus d'infos
Leo Castledine Middlesbrough Actif 132 / 138 40% 1 10.05.2027 -
Simone Mazzocchi Cosenza Actif 125 / 113 40% 2 08.05.2027 -
Lorent Tolaj Plymouth Argyle Actif 129 / 114 40% 1 08.05.2027 -
Aune Heggebø West Bromwich Albion Actif 123 / 124 40% 1 06.05.2027 -
Ilyas Ansah Hull City Actif 123 / 131 40% 1 04.05.2027 -
Rocco Vata Watford Actif 114 / 119 40% 1 04.05.2027 -
Cristian Shpendi Cesena Actif 141 / 130 40% 4 03.05.2027 Observer
David Okereke Cremonese Actif 123 / 124 40% 2 03.05.2027 -
David Romero Parma Actif 129 / 124 40% 2 01.05.2027 -
Willem Geubbels Lecce Actif 134 / 123 40% 2 01.05.2027 -
Bernat Guiu Virtus Entella Actif 127 / 111 40% 3 30.04.2027 -
Mustapha Sangaré Levski Actif 118 / 114 40% 4 29.04.2027 -
Eric Ramírez Llaneros Actif 115 / 104 40% 1 28.04.2027 -
Matteo Rover Reggiana Actif 127 / 122 40% 1 26.04.2027 -
Jérémy Le Douaron Palermo Actif 129 / 122 40% 1 23.04.2027 -
Everton Bala Levski Actif 128 / 127 40% 5 22.04.2027 -
José Martínes CSKA 1948 Actif 112 / 109 40% 5 20.04.2027 -
Marco Tumminello Benevento Actif 123 / 109 40% 2 20.04.2027 -
Federico Bonazzoli Cremonese Actif 122 / 135 40% 3 19.04.2027 -
Billal Messaoudi JS Kabylie Actif 106 / 120 40% 2 15.04.2027 -
Luca Moro Padova Actif 115 / 117 40% 2 15.04.2027 -
Rayan Bournemouth Actif 138 / 140 40% 1 13.04.2027 -
Giuseppe Di Serio Spezia Actif 131 / 119 40% 1 13.04.2027 -
Vyacheslav Grulev Nizhniy Novgorod Actif 104 / 116 40% 3 11.04.2027 -
Younes Ebnoutalib Eintracht Frankfurt Actif 140 / 127 40% 1 06.04.2027 -
Emanuele Schimmenti Potenza Actif 114 / 111 40% 1 05.04.2027 -
Jacques Siwe Rubin Actif 122 / 114 40% 2 18.03.2027 -
Vladislav Sarveli Nizhniy Novgorod Actif 101 / 103 40% 1 16.03.2027 -
Leandro Godoy CSKA Sofia Actif 126 / 116 40% 1 15.03.2027 -
Edarlyn Reyes Arsenal Tula Actif 118 / 110 40% 2 14.03.2027 -
Ali Youssef Apollon Actif 119 / 113 40% 3 12.03.2027 -
Kwadwo Duah Ludogorets Actif 124 / 124 40% 2 12.03.2027 -
Tenton Yenne Baltika Actif 113 / 110 40% 2 08.03.2027 -
Dominik Fiola Haladas Actif 128 / 128 40% 1 08.03.2027 -
Enzo Cabrera AE Kition Actif 103 / 117 40% 2 04.03.2027 -
Róbert Polievka MTK Budapest Actif 123 / 117 40% 2 01.03.2027 Plus d'infos
Tashreeq Matthews Mamelodi Sundowns Actif 120 / 116 40% 1 28.02.2027 -
Eddy Ozobic Inter Actif 97 / 114 40% 1 27.02.2027 -
Samuel Kalu Botev Plovdiv Actif 116 / 114 40% 2 26.02.2027 -
Themba Ngcobo SuperSport United Actif 107 / 126 40% 2 26.02.2027 -
Gilson Benchimol Akron Actif 114 / 115 40% 3 25.02.2027 -
Krisztofer Horváth Ujpest Actif 115 / 120 40% 3 25.02.2027 -
Martin Sekulić Ural Actif 102 / 108 40% 1 23.02.2027 -
Georgy Melkadze Akhmat Grozny Actif 113 / 118 40% 1 18.02.2027 -
Lenny Joseph Ferencvaros Actif 112 / 122 40% 1 17.02.2027 -
Berna CSKA 1948 Actif 121 / 110 40% 1 16.02.2027 -
Mikhail Ignatov Sochi Actif 118 / 113 40% 2 14.02.2027 -
Mandla Mahlangu Ajax Cape Town Actif 99 / 106 40% 1 12.02.2027 -
Etiosa Ighodaro Kaizer Chiefs Actif 99 / 106 40% 1 12.02.2027 -
Ádin Molnár MTK Budapest Actif 108 / 112 62% 2 11.02.2027 Observer
Ammar Ramadan DAC Dunajska Streda Actif 135 / 130 40% 2 11.02.2027 -
Yegor Golenkov Rostov Actif 121 / 124 40% 2 10.02.2027 -
Chinedu Geoffrey Krylya Sovetov Actif 116 / 112 40% 1 05.02.2027 -
Brayan León Mamelodi Sundowns Actif 122 / 117 40% 1 04.02.2027 -
Stanislav Ivanov Arda Actif 124 / 121 40% 1 03.02.2027 -
Eren Aydın Zira Actif 98 / 108 40% 1 02.02.2027 -
Agustín Módica Gimnasia y Esgrima Actif 117 / 111 40% 1 01.02.2027 -
Williams Manyama SuperSport United Actif 129 / 116 40% 2 28.12.2026 -
Ceyhun Nuriyev Gabala Actif 111 / 115 40% 2 23.12.2026 -
Sidiki Chérif Coventry City Actif 121 / 129 40% 1 23.12.2026 -
Reda Khadra Qarabag Actif 133 / 120 40% 4 22.12.2026 -
Mduduzi Shabalala Kaizer Chiefs Actif 102 / 105 40% 2 22.12.2026 -
Mfundo Vilakazi Kaizer Chiefs Actif 115 / 106 40% 1 21.12.2026 -
Yaroslav Gladyshev Dinamo Moscow Actif 116 / 127 40% 2 20.12.2026 -
Thabang Matuludi Polokwane City Actif 97 / 109 40% 1 19.12.2026 -
Siyanda Ndlovu Bloemfontein Celtic Actif 104 / 124 40% 1 19.12.2026 -
Suleiman Camara Slovan Bratislava Actif 130 / 118 40% 1 17.12.2026 -
Petar Stanić Ludogorets Actif 137 / 134 40% 2 14.12.2026 -
Milán Tóth Vasas Actif 116 / 109 40% 3 10.12.2026 -
Marcelo Allende Mamelodi Sundowns Actif 135 / 128 40% 2 09.12.2026 -
Mauro Rodrigues Botev Plovdiv Actif 121 / 112 40% 1 06.12.2026 -
Marko Brest Olimpija Ljubljana Actif 120 / 115 40% 1 02.12.2026 -
Jonás Luna Santa Clara Actif 111 / 128 40% 1 30.11.2026 -
Luka Ilić Honved Actif 127 / 116 40% 2 29.11.2026 -
Mandla Erasmus SuperSport United Actif 117 / 113 40% 2 28.11.2026 -
Ruben van Bommel Ferencvaros Actif 140 / 138 40% 3 25.11.2026 -
Aleksa Janković Sumgayit Actif 115 / 111 40% 1 25.11.2026 -
Oswin Appollis Orlando Pirates Actif 108 / 130 40% 1 24.11.2026 -
Jack Currie Oxford United Actif 127 / 117 40% 2 17.11.2026 -
Ruslan Bezrukov Rubin Actif 117 / 115 40% 2 17.11.2026 -
Tshepang Moremi Orlando Pirates Actif 101 / 119 40% 2 13.11.2026 -
Krisztian Bese Haladas Actif 127 / 120 40% 1 07.11.2026 -
Lautaro Ríos Banfield Actif 119 / 122 40% 1 06.11.2026 -
Mariano Bracamonte Deportivo Riestra Actif 108 / 113 40% 1 27.10.2026 -
Arne Maier Ujpest Actif 114 / 121 40% 4 23.10.2026 -
Thalente Mbatha Orlando Pirates Actif 101 / 108 40% 1 23.10.2026 -
Yuber Quiñónes Deportivo Pereira Actif 102 / 113 40% 1 21.10.2026 -
Marcos Cuenca Zaragoza Actif 101 / 117 40% 1 19.10.2026 -
Julián Palacios Unión de Santa Fe Actif 107 / 120 40% 1 14.10.2026 -
Romano Schmid Frosinone Actif 143 / 148 40% 1 10.10.2026 -
Dardan Shabanhaxhaj Rubin Actif 113 / 110 40% 1 07.10.2026 -
Danijel Petković Liepaja Actif 118 / 122 40% 1 03.08.2026 -
Aljaž Ivačič DAC Dunajska Streda Actif 116 / 112 40% 1 03.08.2026 -
Federico Viñas Toluca Actif 132 / 121 40% 1 02.08.2026 -